Terminal Aerodrome Forecast
Issued by NWS

Home | Current Version | Previous Version | Text Only | Print | Product List | Glossary On
Versions: 1 2 3 4 5 6 7 8 9 10 11 12 13 14
844
FTPA31 PHFO 211739
TAFHJH
TAF
PHJH 211739Z 2118/2218 04012KT P6SM VCSH FEW015 SCT030 BKN040
     FM212300 06015G25KT P6SM VCSH SCT030 BKN050
     FM220400 05010KT P6SM FEW030 SCT050
      AMD NOT SKED AFT 220400=

USA.gov is the U.S. government's official web portal to all federal, state and local government web resources and services.